Lakenan, Missouri
Current Conditions -  °F | °C
As of 10:15 AM on Tuesday 21 Oct 2014 (Local Time) from KHAE Reporting Station
Clear Clear  
Wind Chill: 59°   Ceiling: Unl
Heat Index: 59°   Visibility: 10mi
Dew Point: 41°   Wind: 7mph
Humidity: 51%   Direction: 60°ENE
Pressure: 30.16"   Gusts: NA
Location:  39.7104°N, 92.0292°W
Report Text: KHAE 211515Z AUTO 06006KT 10SM CLR 15/05 A3016 RMK AO2
Loading
Personal Weather Stations






























Interactive Weather Map
Tropical Storm Tracking
New forecast layout! Learn more

10-Day Weather Forecast

Advertisements
Track Severe Weather on mobile